sensor_id;sensor_type;location;lat;lon;timestamp;temperature;humidity
14771;DHT22;7477;45.222;5.688;2022-10-16T00:03:03;14.90;99.90
14771;DHT22;7477;45.222;5.688;2022-10-16T00:06:25;14.90;99.90
14771;DHT22;7477;45.222;5.688;2022-10-16T00:09:45;14.80;99.90
14771;DHT22;7477;45.222;5.688;2022-10-16T00:13:06;14.80;99.90
14771;DHT22;7477;45.222;5.688;2022-10-16T00:16:27;14.80;99.90
14771;DHT22;7477;45.222;5.688;2022-10-16T00:19:46;14.80;99.90
14771;DHT22;7477;45.222;5.688;2022-10-16T00:23:05;14.70;99.90
14771;DHT22;7477;45.222;5.688;2022-10-16T00:26:26;14.70;99.90
14771;DHT22;7477;45.222;5.688;2022-10-16T00:29:48;14.70;99.90
14771;DHT22;7477;45.222;5.688;2022-10-16T00:33:08;14.70;99.90
14771;DHT22;7477;45.222;5.688;2022-10-16T00:36:27;14.70;99.90
14771;DHT22;7477;45.222;5.688;2022-10-16T00:39:46;14.70;99.90
14771;DHT22;7477;45.222;5.688;2022-10-16T00:43:35;14.70;99.90
14771;DHT22;7477;45.222;5.688;2022-10-16T00:46:53;14.60;99.90
14771;DHT22;7477;45.222;5.688;2022-10-16T00:50:28;14.60;99.90
14771;DHT22;7477;45.222;5.688;2022-10-16T00:53:50;14.60;99.90
14771;DHT22;7477;45.222;5.688;2022-10-16T00:57:09;14.60;99.90
14771;DHT22;7477;45.222;5.688;2022-10-16T01:00:29;14.60;99.90
14771;DHT22;7477;45.222;5.688;2022-10-16T01:03:48;14.50;99.90
14771;DHT22;7477;45.222;5.688;2022-10-16T01:11:03;14.50;99.90
14771;DHT22;7477;45.222;5.688;2022-10-16T01:21:36;14.40;99.90
14771;DHT22;7477;45.222;5.688;2022-10-16T01:25:00;14.40;99.90
14771;DHT22;7477;45.222;5.688;2022-10-16T01:28:28;14.30;99.90
14771;DHT22;7477;45.222;5.688;2022-10-16T01:32:10;14.30;99.90
14771;DHT22;7477;45.222;5.688;2022-10-16T01:35:40;14.20;99.90
14771;DHT22;7477;45.222;5.688;2022-10-16T01:39:02;14.20;99.90
14771;DHT22;7477;45.222;5.688;2022-10-16T01:42:24;14.20;99.90
14771;DHT22;7477;45.222;5.688;2022-10-16T01:45:46;14.10;99.90
14771;DHT22;7477;45.222;5.688;2022-10-16T01:49:06;14.10;99.90
14771;DHT22;7477;45.222;5.688;2022-10-16T01:52:27;14.00;99.90
14771;DHT22;7477;45.222;5.688;2022-10-16T01:55:49;14.00;99.90
14771;DHT22;7477;45.222;5.688;2022-10-16T01:59:21;14.00;99.90
14771;DHT22;7477;45.222;5.688;2022-10-16T02:02:45;14.00;99.90
14771;DHT22;7477;45.222;5.688;2022-10-16T02:06:07;14.00;99.90
14771;DHT22;7477;45.222;5.688;2022-10-16T02:09:26;14.00;99.90
14771;DHT22;7477;45.222;5.688;2022-10-16T02:12:50;13.90;99.90
14771;DHT22;7477;45.222;5.688;2022-10-16T02:16:13;13.90;99.90
14771;DHT22;7477;45.222;5.688;2022-10-16T02:19:33;13.90;99.90
14771;DHT22;7477;45.222;5.688;2022-10-16T02:22:54;13.80;99.90
14771;DHT22;7477;45.222;5.688;2022-10-16T02:26:19;13.80;99.90
14771;DHT22;7477;45.222;5.688;2022-10-16T02:29:47;13.80;99.90
14771;DHT22;7477;45.222;5.688;2022-10-16T02:33:11;13.80;99.90
14771;DHT22;7477;45.222;5.688;2022-10-16T02:36:33;13.80;99.90
14771;DHT22;7477;45.222;5.688;2022-10-16T02:39:55;13.70;99.90
14771;DHT22;7477;45.222;5.688;2022-10-16T02:43:15;13.70;99.90
14771;DHT22;7477;45.222;5.688;2022-10-16T02:46:35;13.70;99.90
14771;DHT22;7477;45.222;5.688;2022-10-16T02:49:54;13.70;99.90
14771;DHT22;7477;45.222;5.688;2022-10-16T02:53:13;13.60;99.90
14771;DHT22;7477;45.222;5.688;2022-10-16T02:56:32;13.60;99.90
14771;DHT22;7477;45.222;5.688;2022-10-16T02:59:52;13.50;99.90
14771;DHT22;7477;45.222;5.688;2022-10-16T03:03:11;13.50;99.90
14771;DHT22;7477;45.222;5.688;2022-10-16T03:06:31;13.50;99.90
14771;DHT22;7477;45.222;5.688;2022-10-16T03:09:50;13.50;99.90
14771;DHT22;7477;45.222;5.688;2022-10-16T03:13:09;13.50;99.90
14771;DHT22;7477;45.222;5.688;2022-10-16T03:16:28;13.50;99.90
14771;DHT22;7477;45.222;5.688;2022-10-16T03:19:48;13.40;99.90
14771;DHT22;7477;45.222;5.688;2022-10-16T03:23:08;13.50;99.90
14771;DHT22;7477;45.222;5.688;2022-10-16T03:26:27;13.40;99.90
14771;DHT22;7477;45.222;5.688;2022-10-16T03:29:46;13.40;99.90
14771;DHT22;7477;45.222;5.688;2022-10-16T03:33:05;13.40;99.90
14771;DHT22;7477;45.222;5.688;2022-10-16T03:36:24;13.30;99.90
14771;DHT22;7477;45.222;5.688;2022-10-16T03:39:44;13.40;99.90
14771;DHT22;7477;45.222;5.688;2022-10-16T03:43:03;13.40;99.90
14771;DHT22;7477;45.222;5.688;2022-10-16T03:46:22;13.40;99.90
14771;DHT22;7477;45.222;5.688;2022-10-16T03:49:42;13.40;99.90
14771;DHT22;7477;45.222;5.688;2022-10-16T03:53:01;13.40;99.90
14771;DHT22;7477;45.222;5.688;2022-10-16T03:56:21;13.30;99.90
14771;DHT22;7477;45.222;5.688;2022-10-16T03:59:40;13.40;99.90
14771;DHT22;7477;45.222;5.688;2022-10-16T04:02:59;13.30;99.90
14771;DHT22;7477;45.222;5.688;2022-10-16T04:06:19;13.40;99.90
14771;DHT22;7477;45.222;5.688;2022-10-16T04:09:38;13.30;99.90
14771;DHT22;7477;45.222;5.688;2022-10-16T04:12:58;13.30;99.90
14771;DHT22;7477;45.222;5.688;2022-10-16T04:16:17;13.30;99.90
14771;DHT22;7477;45.222;5.688;2022-10-16T04:19:36;13.20;99.90
14771;DHT22;7477;45.222;5.688;2022-10-16T04:22:56;13.20;99.90
14771;DHT22;7477;45.222;5.688;2022-10-16T04:26:16;13.20;99.90
14771;DHT22;7477;45.222;5.688;2022-10-16T04:29:35;13.20;99.90
14771;DHT22;7477;45.222;5.688;2022-10-16T04:32:54;13.20;99.90
14771;DHT22;7477;45.222;5.688;2022-10-16T04:36:13;13.20;99.90
14771;DHT22;7477;45.222;5.688;2022-10-16T04:39:33;13.20;99.90
14771;DHT22;7477;45.222;5.688;2022-10-16T04:42:52;13.20;99.90
14771;DHT22;7477;45.222;5.688;2022-10-16T04:46:11;13.10;99.90
14771;DHT22;7477;45.222;5.688;2022-10-16T04:49:30;13.10;99.90
14771;DHT22;7477;45.222;5.688;2022-10-16T04:52:49;13.10;99.90
14771;DHT22;7477;45.222;5.688;2022-10-16T04:56:09;13.10;99.90
14771;DHT22;7477;45.222;5.688;2022-10-16T04:59:28;13.20;99.90
14771;DHT22;7477;45.222;5.688;2022-10-16T05:02:49;13.20;99.90
14771;DHT22;7477;45.222;5.688;2022-10-16T05:06:08;13.10;99.90
14771;DHT22;7477;45.222;5.688;2022-10-16T05:09:28;13.10;99.90
14771;DHT22;7477;45.222;5.688;2022-10-16T05:12:47;13.00;99.90
14771;DHT22;7477;45.222;5.688;2022-10-16T05:16:06;13.00;99.90
14771;DHT22;7477;45.222;5.688;2022-10-16T05:19:26;13.00;99.90
14771;DHT22;7477;45.222;5.688;2022-10-16T05:22:45;13.00;99.90
14771;DHT22;7477;45.222;5.688;2022-10-16T05:26:04;13.00;99.90
14771;DHT22;7477;45.222;5.688;2022-10-16T05:29:23;12.90;99.90
14771;DHT22;7477;45.222;5.688;2022-10-16T05:32:48;12.90;99.90
14771;DHT22;7477;45.222;5.688;2022-10-16T05:36:09;12.90;99.90
14771;DHT22;7477;45.222;5.688;2022-10-16T05:39:28;13.00;99.90
14771;DHT22;7477;45.222;5.688;2022-10-16T05:42:47;12.90;99.90
14771;DHT22;7477;45.222;5.688;2022-10-16T05:46:07;12.90;99.90
14771;DHT22;7477;45.222;5.688;2022-10-16T05:49:26;12.80;99.90
14771;DHT22;7477;45.222;5.688;2022-10-16T05:52:45;12.80;99.90
14771;DHT22;7477;45.222;5.688;2022-10-16T05:56:05;12.80;99.90
14771;DHT22;7477;45.222;5.688;2022-10-16T05:59:25;12.80;99.90
14771;DHT22;7477;45.222;5.688;2022-10-16T06:02:44;12.80;99.90
14771;DHT22;7477;45.222;5.688;2022-10-16T06:06:18;12.80;99.90
14771;DHT22;7477;45.222;5.688;2022-10-16T06:09:38;12.70;99.90
14771;DHT22;7477;45.222;5.688;2022-10-16T06:12:57;12.70;99.90
14771;DHT22;7477;45.222;5.688;2022-10-16T06:16:16;12.70;99.90
14771;DHT22;7477;45.222;5.688;2022-10-16T06:19:36;12.70;99.90
14771;DHT22;7477;45.222;5.688;2022-10-16T06:22:55;12.70;99.90
14771;DHT22;7477;45.222;5.688;2022-10-16T06:26:17;12.70;99.90
14771;DHT22;7477;45.222;5.688;2022-10-16T06:29:36;12.70;99.90
14771;DHT22;7477;45.222;5.688;2022-10-16T06:32:55;12.70;99.90
14771;DHT22;7477;45.222;5.688;2022-10-16T06:36:16;12.70;99.90
14771;DHT22;7477;45.222;5.688;2022-10-16T06:39:36;12.80;99.90
14771;DHT22;7477;45.222;5.688;2022-10-16T06:42:55;12.80;99.90
14771;DHT22;7477;45.222;5.688;2022-10-16T06:46:16;12.80;99.90
14771;DHT22;7477;45.222;5.688;2022-10-16T06:49:36;12.90;99.90
14771;DHT22;7477;45.222;5.688;2022-10-16T06:52:55;12.90;99.90
14771;DHT22;7477;45.222;5.688;2022-10-16T06:56:22;12.90;99.90
14771;DHT22;7477;45.222;5.688;2022-10-16T06:59:41;13.00;99.90
14771;DHT22;7477;45.222;5.688;2022-10-16T07:03:00;13.10;99.90
14771;DHT22;7477;45.222;5.688;2022-10-16T07:06:21;13.20;99.90
14771;DHT22;7477;45.222;5.688;2022-10-16T07:09:40;13.20;99.90
14771;DHT22;7477;45.222;5.688;2022-10-16T07:13:00;13.30;99.90
14771;DHT22;7477;45.222;5.688;2022-10-16T07:16:21;13.30;99.90
14771;DHT22;7477;45.222;5.688;2022-10-16T07:19:41;13.20;99.90
14771;DHT22;7477;45.222;5.688;2022-10-16T07:23:00;13.20;99.90
14771;DHT22;7477;45.222;5.688;2022-10-16T07:26:19;13.20;99.90
14771;DHT22;7477;45.222;5.688;2022-10-16T07:29:39;13.20;99.90
14771;DHT22;7477;45.222;5.688;2022-10-16T07:32:59;13.30;99.90
14771;DHT22;7477;45.222;5.688;2022-10-16T07:36:19;13.30;99.90
14771;DHT22;7477;45.222;5.688;2022-10-16T07:39:39;13.30;99.90
14771;DHT22;7477;45.222;5.688;2022-10-16T07:42:58;13.40;99.90
14771;DHT22;7477;45.222;5.688;2022-10-16T07:46:18;13.40;99.90
14771;DHT22;7477;45.222;5.688;2022-10-16T07:49:38;13.40;99.90
14771;DHT22;7477;45.222;5.688;2022-10-16T07:52:57;13.50;99.90
14771;DHT22;7477;45.222;5.688;2022-10-16T07:56:17;13.50;99.90
14771;DHT22;7477;45.222;5.688;2022-10-16T07:59:36;13.60;99.90
14771;DHT22;7477;45.222;5.688;2022-10-16T08:02:56;13.60;99.90
14771;DHT22;7477;45.222;5.688;2022-10-16T08:06:20;13.60;99.90
14771;DHT22;7477;45.222;5.688;2022-10-16T08:09:40;13.60;99.90
14771;DHT22;7477;45.222;5.688;2022-10-16T08:12:59;13.60;99.90
14771;DHT22;7477;45.222;5.688;2022-10-16T08:16:18;13.70;99.90
14771;DHT22;7477;45.222;5.688;2022-10-16T08:19:38;13.80;99.90
14771;DHT22;7477;45.222;5.688;2022-10-16T08:22:59;13.90;99.90
14771;DHT22;7477;45.222;5.688;2022-10-16T08:26:18;13.90;99.90
14771;DHT22;7477;45.222;5.688;2022-10-16T08:29:38;14.00;99.90
14771;DHT22;7477;45.222;5.688;2022-10-16T08:32:58;14.10;99.90
14771;DHT22;7477;45.222;5.688;2022-10-16T08:36:17;14.10;99.90
14771;DHT22;7477;45.222;5.688;2022-10-16T08:39:36;14.20;99.90
14771;DHT22;7477;45.222;5.688;2022-10-16T08:49:58;14.30;99.90
14771;DHT22;7477;45.222;5.688;2022-10-16T08:53:33;14.40;99.90
14771;DHT22;7477;45.222;5.688;2022-10-16T08:56:56;14.50;99.90
14771;DHT22;7477;45.222;5.688;2022-10-16T09:00:16;14.50;99.90
14771;DHT22;7477;45.222;5.688;2022-10-16T09:03:52;14.60;99.90
14771;DHT22;7477;45.222;5.688;2022-10-16T09:07:18;14.90;99.90
14771;DHT22;7477;45.222;5.688;2022-10-16T09:10:46;14.80;99.90
14771;DHT22;7477;45.222;5.688;2022-10-16T09:19:04;15.00;99.90
14771;DHT22;7477;45.222;5.688;2022-10-16T09:22:28;15.10;99.90
14771;DHT22;7477;45.222;5.688;2022-10-16T09:25:50;15.00;99.90
14771;DHT22;7477;45.222;5.688;2022-10-16T09:29:15;15.00;99.90
14771;DHT22;7477;45.222;5.688;2022-10-16T09:32:35;15.30;99.90
14771;DHT22;7477;45.222;5.688;2022-10-16T09:35:56;15.40;99.90
14771;DHT22;7477;45.222;5.688;2022-10-16T09:39:17;15.40;99.90
14771;DHT22;7477;45.222;5.688;2022-10-16T09:42:37;15.50;99.90
14771;DHT22;7477;45.222;5.688;2022-10-16T09:45:57;15.60;99.90
14771;DHT22;7477;45.222;5.688;2022-10-16T09:49:21;15.80;99.90
14771;DHT22;7477;45.222;5.688;2022-10-16T09:52:41;16.00;99.90
14771;DHT22;7477;45.222;5.688;2022-10-16T09:56:00;16.20;99.90
14771;DHT22;7477;45.222;5.688;2022-10-16T09:59:21;16.10;99.90
14771;DHT22;7477;45.222;5.688;2022-10-16T10:02:43;16.30;99.90
14771;DHT22;7477;45.222;5.688;2022-10-16T10:06:16;16.30;99.90
14771;DHT22;7477;45.222;5.688;2022-10-16T10:09:39;16.40;99.90
14771;DHT22;7477;45.222;5.688;2022-10-16T10:13:03;16.50;99.90
14771;DHT22;7477;45.222;5.688;2022-10-16T10:16:25;16.40;99.90
14771;DHT22;7477;45.222;5.688;2022-10-16T10:20:22;16.50;99.90
14771;DHT22;7477;45.222;5.688;2022-10-16T10:23:41;16.60;99.90
14771;DHT22;7477;45.222;5.688;2022-10-16T10:27:09;16.50;99.90
14771;DHT22;7477;45.222;5.688;2022-10-16T10:34:18;16.80;99.90
14771;DHT22;7477;45.222;5.688;2022-10-16T10:38:10;16.80;99.90
14771;DHT22;7477;45.222;5.688;2022-10-16T10:42:00;17.20;99.90
14771;DHT22;7477;45.222;5.688;2022-10-16T10:45:27;16.90;99.90
14771;DHT22;7477;45.222;5.688;2022-10-16T11:00:12;16.80;99.90
14771;DHT22;7477;45.222;5.688;2022-10-16T11:03:46;16.60;99.90
14771;DHT22;7477;45.222;5.688;2022-10-16T11:07:19;16.80;99.90
14771;DHT22;7477;45.222;5.688;2022-10-16T11:11:02;16.50;99.90
14771;DHT22;7477;45.222;5.688;2022-10-16T11:14:28;17.10;99.90
14771;DHT22;7477;45.222;5.688;2022-10-16T11:21:43;17.80;99.90
14771;DHT22;7477;45.222;5.688;2022-10-16T11:28:35;17.80;99.90
14771;DHT22;7477;45.222;5.688;2022-10-16T11:32:24;17.50;99.90
14771;DHT22;7477;45.222;5.688;2022-10-16T11:35:51;18.70;99.90
14771;DHT22;7477;45.222;5.688;2022-10-16T11:39:21;18.90;99.90
14771;DHT22;7477;45.222;5.688;2022-10-16T11:42:46;18.60;99.90
14771;DHT22;7477;45.222;5.688;2022-10-16T11:46:15;19.00;99.90
14771;DHT22;7477;45.222;5.688;2022-10-16T11:49:37;18.60;99.90
14771;DHT22;7477;45.222;5.688;2022-10-16T11:53:19;19.30;99.90
14771;DHT22;7477;45.222;5.688;2022-10-16T11:56:44;19.30;99.90
14771;DHT22;7477;45.222;5.688;2022-10-16T12:00:26;18.60;99.90
14771;DHT22;7477;45.222;5.688;2022-10-16T12:04:02;18.10;99.90
14771;DHT22;7477;45.222;5.688;2022-10-16T12:07:30;18.20;99.90
14771;DHT22;7477;45.222;5.688;2022-10-16T12:10:51;19.00;99.90
14771;DHT22;7477;45.222;5.688;2022-10-16T12:17:38;18.60;99.90
14771;DHT22;7477;45.222;5.688;2022-10-16T12:20:58;18.60;99.90
14771;DHT22;7477;45.222;5.688;2022-10-16T12:24:35;18.40;99.90
14771;DHT22;7477;45.222;5.688;2022-10-16T12:28:07;18.20;99.90
14771;DHT22;7477;45.222;5.688;2022-10-16T12:31:43;18.50;99.90
14771;DHT22;7477;45.222;5.688;2022-10-16T12:35:05;18.70;99.90
14771;DHT22;7477;45.222;5.688;2022-10-16T12:38:45;18.30;99.90
14771;DHT22;7477;45.222;5.688;2022-10-16T12:45:38;19.50;99.90
14771;DHT22;7477;45.222;5.688;2022-10-16T12:49:21;18.40;99.90
14771;DHT22;7477;45.222;5.688;2022-10-16T12:52:40;18.10;99.90
14771;DHT22;7477;45.222;5.688;2022-10-16T13:22:04;18.20;99.90
14771;DHT22;7477;45.222;5.688;2022-10-16T13:28:52;18.20;99.90
14771;DHT22;7477;45.222;5.688;2022-10-16T13:32:15;18.20;99.90
14771;DHT22;7477;45.222;5.688;2022-10-16T13:35:35;18.20;99.90
14771;DHT22;7477;45.222;5.688;2022-10-16T13:39:21;18.40;99.90
14771;DHT22;7477;45.222;5.688;2022-10-16T13:42:40;18.40;99.90
14771;DHT22;7477;45.222;5.688;2022-10-16T13:46:05;18.40;99.90
14771;DHT22;7477;45.222;5.688;2022-10-16T13:49:24;18.40;99.90
14771;DHT22;7477;45.222;5.688;2022-10-16T13:52:43;18.60;99.90
14771;DHT22;7477;45.222;5.688;2022-10-16T13:56:04;18.40;99.90
14771;DHT22;7477;45.222;5.688;2022-10-16T13:59:33;18.50;99.90
14771;DHT22;7477;45.222;5.688;2022-10-16T14:02:57;18.50;99.90
14771;DHT22;7477;45.222;5.688;2022-10-16T14:06:20;18.40;99.90
14771;DHT22;7477;45.222;5.688;2022-10-16T14:09:42;18.50;99.90
14771;DHT22;7477;45.222;5.688;2022-10-16T14:13:07;18.60;99.90
14771;DHT22;7477;45.222;5.688;2022-10-16T14:16:32;18.60;99.90
14771;DHT22;7477;45.222;5.688;2022-10-16T14:19:54;18.50;99.90
14771;DHT22;7477;45.222;5.688;2022-10-16T14:23:36;18.60;99.90
14771;DHT22;7477;45.222;5.688;2022-10-16T14:26:56;18.60;99.90
14771;DHT22;7477;45.222;5.688;2022-10-16T14:30:21;18.60;99.90
14771;DHT22;7477;45.222;5.688;2022-10-16T14:33:41;18.70;99.90
14771;DHT22;7477;45.222;5.688;2022-10-16T14:37:05;18.70;99.90
14771;DHT22;7477;45.222;5.688;2022-10-16T14:40:31;18.70;99.90
14771;DHT22;7477;45.222;5.688;2022-10-16T14:43:56;18.70;99.90
14771;DHT22;7477;45.222;5.688;2022-10-16T14:47:19;18.80;99.90
14771;DHT22;7477;45.222;5.688;2022-10-16T14:50:44;18.70;99.90
14771;DHT22;7477;45.222;5.688;2022-10-16T14:54:04;18.80;99.90
14771;DHT22;7477;45.222;5.688;2022-10-16T14:57:27;18.80;99.90
14771;DHT22;7477;45.222;5.688;2022-10-16T15:00:48;18.90;99.90
14771;DHT22;7477;45.222;5.688;2022-10-16T15:04:10;18.90;99.90
14771;DHT22;7477;45.222;5.688;2022-10-16T15:07:30;18.90;99.90
14771;DHT22;7477;45.222;5.688;2022-10-16T15:10:50;18.90;99.90
14771;DHT22;7477;45.222;5.688;2022-10-16T15:14:13;19.80;99.90
14771;DHT22;7477;45.222;5.688;2022-10-16T15:17:33;19.70;99.90
14771;DHT22;7477;45.222;5.688;2022-10-16T15:20:52;20.00;99.90
14771;DHT22;7477;45.222;5.688;2022-10-16T15:24:13;21.60;99.90
14771;DHT22;7477;45.222;5.688;2022-10-16T15:27:32;22.20;99.90
14771;DHT22;7477;45.222;5.688;2022-10-16T15:30:58;22.30;99.90
14771;DHT22;7477;45.222;5.688;2022-10-16T15:34:17;21.70;99.90
14771;DHT22;7477;45.222;5.688;2022-10-16T15:37:38;21.30;99.90
14771;DHT22;7477;45.222;5.688;2022-10-16T15:40:57;21.60;99.90
14771;DHT22;7477;45.222;5.688;2022-10-16T15:44:17;21.00;99.90
14771;DHT22;7477;45.222;5.688;2022-10-16T15:47:37;21.70;99.90
14771;DHT22;7477;45.222;5.688;2022-10-16T15:50:56;20.90;99.90
14771;DHT22;7477;45.222;5.688;2022-10-16T15:54:18;20.60;99.90
14771;DHT22;7477;45.222;5.688;2022-10-16T15:57:37;20.30;99.90
14771;DHT22;7477;45.222;5.688;2022-10-16T16:00:58;20.90;99.90
14771;DHT22;7477;45.222;5.688;2022-10-16T16:04:20;21.10;99.90
14771;DHT22;7477;45.222;5.688;2022-10-16T16:07:39;21.10;99.90
14771;DHT22;7477;45.222;5.688;2022-10-16T16:11:01;20.30;99.90
14771;DHT22;7477;45.222;5.688;2022-10-16T16:14:21;19.70;99.90
14771;DHT22;7477;45.222;5.688;2022-10-16T16:17:40;19.60;99.90
14771;DHT22;7477;45.222;5.688;2022-10-16T16:21:00;19.50;99.90
14771;DHT22;7477;45.222;5.688;2022-10-16T16:24:19;19.50;99.90
14771;DHT22;7477;45.222;5.688;2022-10-16T16:27:38;19.50;99.90
14771;DHT22;7477;45.222;5.688;2022-10-16T16:30:58;19.40;99.90
14771;DHT22;7477;45.222;5.688;2022-10-16T16:34:17;19.50;99.90
14771;DHT22;7477;45.222;5.688;2022-10-16T16:37:37;19.40;99.90
14771;DHT22;7477;45.222;5.688;2022-10-16T16:40:56;19.40;99.90
14771;DHT22;7477;45.222;5.688;2022-10-16T16:44:16;19.40;99.90
14771;DHT22;7477;45.222;5.688;2022-10-16T16:47:36;19.50;99.90
14771;DHT22;7477;45.222;5.688;2022-10-16T16:51:10;19.50;99.90
14771;DHT22;7477;45.222;5.688;2022-10-16T16:54:34;19.40;99.90
14771;DHT22;7477;45.222;5.688;2022-10-16T16:57:53;19.40;99.90
14771;DHT22;7477;45.222;5.688;2022-10-16T17:01:12;19.40;99.90
14771;DHT22;7477;45.222;5.688;2022-10-16T17:04:32;19.40;99.90
14771;DHT22;7477;45.222;5.688;2022-10-16T17:07:51;19.40;99.90
14771;DHT22;7477;45.222;5.688;2022-10-16T17:11:22;19.40;99.90
14771;DHT22;7477;45.222;5.688;2022-10-16T17:14:41;19.40;99.90
14771;DHT22;7477;45.222;5.688;2022-10-16T17:18:00;19.40;99.90
14771;DHT22;7477;45.222;5.688;2022-10-16T17:21:19;19.40;99.90
14771;DHT22;7477;45.222;5.688;2022-10-16T17:24:38;19.40;99.90
14771;DHT22;7477;45.222;5.688;2022-10-16T17:27:58;19.40;99.90
14771;DHT22;7477;45.222;5.688;2022-10-16T17:31:20;19.40;99.90
14771;DHT22;7477;45.222;5.688;2022-10-16T17:34:40;19.40;99.90
14771;DHT22;7477;45.222;5.688;2022-10-16T17:37:59;19.40;99.90
14771;DHT22;7477;45.222;5.688;2022-10-16T17:41:21;19.40;99.90
14771;DHT22;7477;45.222;5.688;2022-10-16T17:44:40;19.40;99.90
14771;DHT22;7477;45.222;5.688;2022-10-16T17:47:59;19.40;99.90
14771;DHT22;7477;45.222;5.688;2022-10-16T17:51:21;19.50;99.90
14771;DHT22;7477;45.222;5.688;2022-10-16T17:54:41;19.40;99.90
14771;DHT22;7477;45.222;5.688;2022-10-16T17:58:00;19.40;99.90
14771;DHT22;7477;45.222;5.688;2022-10-16T18:01:20;19.40;99.90
14771;DHT22;7477;45.222;5.688;2022-10-16T18:04:40;19.30;99.90
14771;DHT22;7477;45.222;5.688;2022-10-16T18:07:59;19.30;99.90
14771;DHT22;7477;45.222;5.688;2022-10-16T18:11:20;19.40;99.90
14771;DHT22;7477;45.222;5.688;2022-10-16T18:14:39;19.40;99.90
14771;DHT22;7477;45.222;5.688;2022-10-16T18:17:58;19.30;99.90
14771;DHT22;7477;45.222;5.688;2022-10-16T18:21:19;19.30;99.90
14771;DHT22;7477;45.222;5.688;2022-10-16T18:24:38;19.30;99.90
14771;DHT22;7477;45.222;5.688;2022-10-16T18:27:57;19.30;99.90
14771;DHT22;7477;45.222;5.688;2022-10-16T18:31:17;19.30;99.90
14771;DHT22;7477;45.222;5.688;2022-10-16T18:34:37;19.40;99.90
14771;DHT22;7477;45.222;5.688;2022-10-16T18:37:56;19.40;99.90
14771;DHT22;7477;45.222;5.688;2022-10-16T18:41:18;19.50;99.90
14771;DHT22;7477;45.222;5.688;2022-10-16T18:44:38;19.50;99.90
14771;DHT22;7477;45.222;5.688;2022-10-16T18:47:57;19.40;99.90
14771;DHT22;7477;45.222;5.688;2022-10-16T18:51:42;19.50;99.90
14771;DHT22;7477;45.222;5.688;2022-10-16T18:55:03;19.40;99.90
14771;DHT22;7477;45.222;5.688;2022-10-16T18:58:22;19.40;99.90
14771;DHT22;7477;45.222;5.688;2022-10-16T19:01:41;19.30;99.90
14771;DHT22;7477;45.222;5.688;2022-10-16T19:05:01;19.20;99.90
14771;DHT22;7477;45.222;5.688;2022-10-16T19:08:21;19.10;99.90
14771;DHT22;7477;45.222;5.688;2022-10-16T19:11:42;19.00;99.90
14771;DHT22;7477;45.222;5.688;2022-10-16T19:15:01;19.10;99.90
14771;DHT22;7477;45.222;5.688;2022-10-16T19:18:21;19.00;99.90
14771;DHT22;7477;45.222;5.688;2022-10-16T19:21:40;18.90;99.90
14771;DHT22;7477;45.222;5.688;2022-10-16T19:25:00;19.00;99.90
14771;DHT22;7477;45.222;5.688;2022-10-16T19:28:19;18.90;99.90
14771;DHT22;7477;45.222;5.688;2022-10-16T19:31:38;18.90;99.90
14771;DHT22;7477;45.222;5.688;2022-10-16T19:34:58;18.90;99.90
14771;DHT22;7477;45.222;5.688;2022-10-16T19:38:18;18.80;99.90
14771;DHT22;7477;45.222;5.688;2022-10-16T19:41:37;18.80;99.90
14771;DHT22;7477;45.222;5.688;2022-10-16T19:44:57;18.90;99.90
14771;DHT22;7477;45.222;5.688;2022-10-16T19:48:16;18.90;99.90
14771;DHT22;7477;45.222;5.688;2022-10-16T19:51:35;18.90;99.90
14771;DHT22;7477;45.222;5.688;2022-10-16T19:54:55;18.80;99.90
14771;DHT22;7477;45.222;5.688;2022-10-16T19:58:15;18.70;99.90
14771;DHT22;7477;45.222;5.688;2022-10-16T20:01:35;18.80;99.90
14771;DHT22;7477;45.222;5.688;2022-10-16T20:04:54;18.80;99.90
14771;DHT22;7477;45.222;5.688;2022-10-16T20:08:14;18.80;99.90
14771;DHT22;7477;45.222;5.688;2022-10-16T20:11:34;18.70;99.90
14771;DHT22;7477;45.222;5.688;2022-10-16T20:14:54;18.50;99.90
14771;DHT22;7477;45.222;5.688;2022-10-16T20:18:14;18.60;99.90
14771;DHT22;7477;45.222;5.688;2022-10-16T20:21:34;18.60;99.90
14771;DHT22;7477;45.222;5.688;2022-10-16T20:24:53;18.60;99.90
14771;DHT22;7477;45.222;5.688;2022-10-16T20:28:15;18.60;99.90
14771;DHT22;7477;45.222;5.688;2022-10-16T20:31:36;18.50;99.90
14771;DHT22;7477;45.222;5.688;2022-10-16T20:34:55;18.40;99.90
14771;DHT22;7477;45.222;5.688;2022-10-16T20:38:15;18.40;99.90
14771;DHT22;7477;45.222;5.688;2022-10-16T20:41:35;18.40;99.90
14771;DHT22;7477;45.222;5.688;2022-10-16T20:44:55;18.30;99.90
14771;DHT22;7477;45.222;5.688;2022-10-16T20:48:14;18.40;99.90
14771;DHT22;7477;45.222;5.688;2022-10-16T20:51:33;18.30;99.90
14771;DHT22;7477;45.222;5.688;2022-10-16T20:54:53;18.20;99.90
14771;DHT22;7477;45.222;5.688;2022-10-16T20:58:12;18.20;99.90
14771;DHT22;7477;45.222;5.688;2022-10-16T21:01:32;18.20;99.90
14771;DHT22;7477;45.222;5.688;2022-10-16T21:04:53;18.00;99.90
14771;DHT22;7477;45.222;5.688;2022-10-16T21:08:12;18.10;99.90
14771;DHT22;7477;45.222;5.688;2022-10-16T21:11:34;18.00;99.90
14771;DHT22;7477;45.222;5.688;2022-10-16T21:14:53;17.90;99.90
14771;DHT22;7477;45.222;5.688;2022-10-16T21:18:13;17.90;99.90
14771;DHT22;7477;45.222;5.688;2022-10-16T21:21:34;17.80;99.90
14771;DHT22;7477;45.222;5.688;2022-10-16T21:24:54;17.70;99.90
14771;DHT22;7477;45.222;5.688;2022-10-16T21:28:13;17.70;99.90
14771;DHT22;7477;45.222;5.688;2022-10-16T21:31:33;17.70;99.90
14771;DHT22;7477;45.222;5.688;2022-10-16T21:34:53;17.60;99.90
14771;DHT22;7477;45.222;5.688;2022-10-16T21:38:12;17.60;99.90
14771;DHT22;7477;45.222;5.688;2022-10-16T21:41:32;17.60;99.90
14771;DHT22;7477;45.222;5.688;2022-10-16T21:44:51;17.60;99.90
14771;DHT22;7477;45.222;5.688;2022-10-16T21:48:10;17.50;99.90
14771;DHT22;7477;45.222;5.688;2022-10-16T21:51:32;17.50;99.90
14771;DHT22;7477;45.222;5.688;2022-10-16T21:54:52;17.40;99.90
14771;DHT22;7477;45.222;5.688;2022-10-16T21:58:11;17.40;99.90
14771;DHT22;7477;45.222;5.688;2022-10-16T22:01:30;17.30;99.90
14771;DHT22;7477;45.222;5.688;2022-10-16T22:04:50;17.20;99.90
14771;DHT22;7477;45.222;5.688;2022-10-16T22:08:09;17.20;99.90
14771;DHT22;7477;45.222;5.688;2022-10-16T22:11:31;17.20;99.90
14771;DHT22;7477;45.222;5.688;2022-10-16T22:14:54;17.10;99.90
14771;DHT22;7477;45.222;5.688;2022-10-16T22:18:13;17.20;99.90
14771;DHT22;7477;45.222;5.688;2022-10-16T22:21:34;17.00;99.90
14771;DHT22;7477;45.222;5.688;2022-10-16T22:24:54;17.00;99.90
14771;DHT22;7477;45.222;5.688;2022-10-16T22:28:13;17.00;99.90
14771;DHT22;7477;45.222;5.688;2022-10-16T22:31:33;17.00;99.90
14771;DHT22;7477;45.222;5.688;2022-10-16T22:34:52;16.80;99.90
14771;DHT22;7477;45.222;5.688;2022-10-16T22:38:12;16.80;99.90
14771;DHT22;7477;45.222;5.688;2022-10-16T22:41:31;16.80;99.90
14771;DHT22;7477;45.222;5.688;2022-10-16T22:44:50;16.80;99.90
14771;DHT22;7477;45.222;5.688;2022-10-16T22:48:09;16.70;99.90
14771;DHT22;7477;45.222;5.688;2022-10-16T22:51:28;16.70;99.90
14771;DHT22;7477;45.222;5.688;2022-10-16T22:54:48;16.60;99.90
14771;DHT22;7477;45.222;5.688;2022-10-16T22:58:07;16.70;99.90